Time;durP1;ratioP1;P1;durP2;ratioP2;P2;SDS_P1;SDS_P2;PMS_P1;PMS_P2;Temp;Humidity;BMP_temperature;BMP_pressure;BME280_temperature;BME280_humidity;BME280_pressure;Samples;Min_cycle;Max_cycle;Signal;HPM_P1;HPM_P2
2022/11/13 00:01:18;;;;;;;13.10;11.80;;;6.40;1.00;;;;;;5118250;28;20996;-58
2022/11/13 00:03:46;;;;;;;16.73;13.83;;;6.40;1.00;;;;;;5119667;28;20483;-59
2022/11/13 00:06:16;;;;;;;18.80;14.63;;;6.40;1.00;;;;;;5119066;28;20897;-56
2022/11/13 00:08:44;;;;;;;20.20;14.87;;;6.50;1.00;;;;;;5119340;28;20907;-59
2022/11/13 00:11:13;;;;;;;17.93;14.80;;;6.50;1.00;;;;;;5119150;28;20748;-59
2022/11/13 00:13:42;;;;;;;16.50;13.20;;;6.50;1.00;;;;;;5118938;28;20441;-59
2022/11/13 00:16:12;;;;;;;19.40;14.27;;;6.40;1.00;;;;;;5118977;28;20455;-58
2022/11/13 00:18:39;;;;;;;17.47;12.60;;;6.40;1.00;;;;;;5118702;28;20754;-58
2022/11/13 00:21:13;;;;;;;16.53;12.83;;;6.40;1.00;;;;;;5119492;28;20828;-58
2022/11/13 00:23:41;;;;;;;16.30;12.23;;;6.40;1.00;;;;;;5119296;28;20804;-56
2022/11/13 00:26:10;;;;;;;15.57;12.37;;;6.30;1.00;;;;;;5118432;28;20477;-60
2022/11/13 00:28:37;;;;;;;16.77;13.40;;;6.30;1.00;;;;;;5119067;28;20888;-59
2022/11/13 00:31:07;;;;;;;14.20;12.37;;;6.20;1.00;;;;;;5118689;28;20434;-59
2022/11/13 00:33:38;;;;;;;16.60;12.60;;;6.20;1.00;;;;;;5118845;28;20871;-60
2022/11/13 00:36:09;;;;;;;15.00;12.97;;;6.20;1.00;;;;;;5118697;28;20465;-58
2022/11/13 00:38:36;;;;;;;14.73;12.53;;;6.20;1.00;;;;;;5118470;28;20464;-58
2022/11/13 00:41:07;;;;;;;15.20;12.43;;;6.20;1.00;;;;;;5118623;28;20847;-55
2022/11/13 00:43:34;;;;;;;16.67;13.03;;;6.20;1.00;;;;;;5131435;27;20961;-58
2022/11/13 00:46:01;;;;;;;16.90;12.83;;;6.10;1.00;;;;;;5136904;27;20451;-59
2022/11/13 00:48:33;;;;;;;16.13;13.27;;;6.10;1.00;;;;;;5139156;27;20887;-59
2022/11/13 00:51:00;;;;;;;16.60;12.20;;;6.10;1.00;;;;;;5131865;27;20437;-56
2022/11/13 00:53:27;;;;;;;17.27;13.77;;;6.00;1.00;;;;;;5118378;28;20701;-59
2022/11/13 00:55:54;;;;;;;17.87;14.63;;;5.90;1.00;;;;;;5118190;28;20434;-58
2022/11/13 00:58:22;;;;;;;21.73;15.03;;;5.90;1.00;;;;;;5130518;28;20447;-58
2022/11/13 01:00:49;;;;;;;15.67;13.53;;;5.90;1.00;;;;;;5122765;27;20799;-60
2022/11/13 01:03:22;;;;;;;16.13;12.80;;;5.90;1.00;;;;;;5118228;28;20484;-59
2022/11/13 01:05:50;;;;;;;15.60;13.10;;;5.90;1.00;;;;;;5124457;28;20563;-57
2022/11/13 01:08:17;;;;;;;14.57;12.80;;;5.90;1.00;;;;;;5117886;28;20471;-59
2022/11/13 01:10:49;;;;;;;16.17;12.50;;;5.90;1.00;;;;;;5137102;27;20467;-60
2022/11/13 01:13:16;;;;;;;14.77;12.47;;;5.90;1.00;;;;;;5129121;27;20904;-59
2022/11/13 01:15:44;;;;;;;17.83;12.50;;;5.80;1.00;;;;;;5122680;28;20487;-58
2022/11/13 01:18:12;;;;;;;13.53;11.57;;;5.80;1.00;;;;;;5122364;28;20528;-60
2022/11/13 01:20:39;;;;;;;15.47;12.10;;;5.70;1.00;;;;;;5122075;28;20487;-57
2022/11/13 01:23:08;;;;;;;17.80;12.40;;;5.70;1.00;;;;;;5122216;28;20481;-59
2022/11/13 01:25:36;;;;;;;15.57;12.97;;;5.70;1.00;;;;;;5122414;28;20463;-59
2022/11/13 01:28:04;;;;;;;16.40;13.23;;;5.70;1.00;;;;;;5121761;28;20470;-58
2022/11/13 01:30:31;;;;;;;15.30;13.50;;;5.60;1.00;;;;;;5122275;28;20443;-59
2022/11/13 01:33:01;;;;;;;15.97;13.23;;;5.60;1.00;;;;;;5122213;28;20459;-56
2022/11/13 01:35:28;;;;;;;17.17;13.57;;;5.60;1.00;;;;;;5121815;28;20431;-59
2022/11/13 01:37:55;;;;;;;19.93;15.97;;;5.60;1.00;;;;;;5122780;27;20864;-58
2022/11/13 01:40:28;;;;;;;18.73;15.67;;;5.60;1.00;;;;;;5142650;27;20850;-59
2022/11/13 01:42:55;;;;;;;19.03;16.60;;;5.50;1.00;;;;;;5138553;27;20473;-57
2022/11/13 01:46:00;;;;;;;19.13;17.03;;;5.40;20.90;;;;;;5127943;27;20480;-59
2022/11/13 01:48:32;;;;;;;18.40;16.43;;;5.50;5.40;;;;;;5132161;27;20462;-59
2022/11/13 01:50:59;;;;;;;18.73;16.70;;;5.50;13.40;;;;;;5142100;27;20450;-56
2022/11/13 01:53:28;;;;;;;16.73;15.03;;;5.50;1.00;;;;;;5142828;27;20557;-59
2022/11/13 01:55:59;;;;;;;16.37;14.60;;;5.50;1.00;;;;;;5142367;27;20457;-57
2022/11/13 01:58:29;;;;;;;16.23;12.30;;;5.40;1.00;;;;;;5141304;27;20454;-59
2022/11/13 02:00:56;;;;;;;14.97;13.57;;;5.40;1.00;;;;;;5142390;27;20710;-59
2022/11/13 02:03:23;;;;;;;17.90;15.60;;;5.40;1.00;;;;;;5142127;27;20457;-59
2022/11/13 02:05:51;;;;;;;18.20;15.57;;;5.30;1.00;;;;;;5142485;27;20460;-59
2022/11/13 02:08:21;;;;;;;16.87;14.40;;;5.30;19.00;;;;;;5142126;27;20485;-56
2022/11/13 02:10:49;;;;;;;16.00;14.30;;;5.30;56.60;;;;;;5142591;27;20457;-59
2022/11/13 02:13:18;;;;;;;17.07;13.07;;;5.30;96.70;;;;;;5141891;27;20455;-58
2022/11/13 02:15:46;;;;;;;14.90;13.30;;;5.30;71.70;;;;;;5120609;28;20451;-59
2022/11/13 02:18:15;;;;;;;12.23;11.00;;;5.30;55.10;;;;;;5123784;27;20561;-59
2022/11/13 02:20:51;;;;;;;11.17;10.00;;;5.30;52.80;;;;;;5125420;27;20480;-59
2022/11/13 02:23:26;;;;;;;10.10;8.97;;;5.30;36.20;;;;;;5141722;27;20458;-59
2022/11/13 02:25:55;;;;;;;10.07;9.00;;;5.30;24.80;;;;;;5141356;27;20450;-59
2022/11/13 02:28:22;;;;;;;11.70;9.20;;;5.30;4.20;;;;;;5141164;27;20498;-59
2022/11/13 02:30:52;;;;;;;11.80;10.50;;;5.20;1.00;;;;;;5123739;27;20769;-59
2022/11/13 02:33:28;;;;;;;19.30;15.40;;;5.20;1.00;;;;;;5141758;27;20524;-59
2022/11/13 02:35:55;;;;;;;16.43;14.63;;;5.20;1.00;;;;;;5141874;27;20465;-59
2022/11/13 02:38:22;;;;;;;20.67;15.07;;;5.20;1.00;;;;;;5141207;27;20435;-58
2022/11/13 02:40:50;;;;;;;21.43;16.53;;;5.20;1.00;;;;;;5141102;27;20516;-59
2022/11/13 02:43:20;;;;;;;21.73;16.87;;;5.20;1.60;;;;;;5141383;27;20914;-57
2022/11/13 02:45:50;;;;;;;19.50;16.47;;;5.10;25.40;;;;;;5140785;27;20469;-59
2022/11/13 02:48:18;;;;;;;17.70;15.80;;;5.00;74.60;;;;;;5140998;27;20486;-59
2022/11/13 02:50:45;;;;;;;18.00;15.50;;;5.00;94.80;;;;;;5140226;27;20473;-59
2022/11/13 02:53:12;;;;;;;15.47;13.90;;;4.90;54.60;;;;;;5140763;27;20459;-58
2022/11/13 02:55:40;;;;;;;14.57;12.47;;;4.90;52.10;;;;;;5141094;27;20462;-59
2022/11/13 02:58:10;;;;;;;12.90;10.90;;;4.90;51.50;;;;;;5141032;27;20546;-59
2022/11/13 03:00:41;;;;;;;12.23;10.93;;;4.90;38.60;;;;;;5140739;27;20486;-59
2022/11/13 03:03:08;;;;;;;11.23;9.43;;;4.90;26.80;;;;;;5140820;27;20789;-59
2022/11/13 03:05:35;;;;;;;12.20;10.10;;;4.90;28.30;;;;;;5140861;27;20532;-57
2022/11/13 03:08:02;;;;;;;10.93;9.83;;;4.80;30.80;;;;;;5140643;27;20434;-58
2022/11/13 03:10:31;;;;;;;10.67;8.87;;;4.80;49.60;;;;;;5140884;27;20858;-58
2022/11/13 03:12:59;;;;;;;10.97;9.07;;;4.80;46.20;;;;;;5140907;27;20473;-59
2022/11/13 03:15:27;;;;;;;10.60;9.50;;;4.70;17.60;;;;;;5140628;27;20528;-58
2022/11/13 03:17:56;;;;;;;14.53;8.90;;;4.70;25.30;;;;;;5140016;27;20459;-59
2022/11/13 03:20:23;;;;;;;10.40;9.20;;;4.60;15.20;;;;;;5140441;27;20581;-59
2022/11/13 03:22:52;;;;;;;9.17;8.00;;;4.60;41.90;;;;;;5140787;27;20469;-60
2022/11/13 03:25:20;;;;;;;9.73;7.83;;;4.60;44.30;;;;;;5140915;27;20456;-59
2022/11/13 03:27:47;;;;;;;10.47;8.40;;;4.60;34.40;;;;;;5140691;27;20513;-58
2022/11/13 03:30:17;;;;;;;10.80;8.87;;;4.60;23.20;;;;;;5132750;27;20468;-57
2022/11/13 03:32:47;;;;;;;9.23;8.20;;;4.50;1.00;;;;;;5135144;27;20565;-57
2022/11/13 03:35:18;;;;;;;9.40;8.20;;;4.50;18.20;;;;;;5139963;27;20502;-58
2022/11/13 03:37:45;;;;;;;11.10;8.83;;;4.50;56.30;;;;;;5140413;27;20524;-60
2022/11/13 03:40:16;;;;;;;9.13;7.90;;;4.40;99.90;;;;;;5140341;27;20533;-59
2022/11/13 03:42:44;;;;;;;9.60;8.17;;;4.40;99.90;;;;;;5140297;27;20549;-59
2022/11/13 03:45:11;;;;;;;9.87;8.87;;;4.40;99.90;;;;;;5140582;27;20433;-60
2022/11/13 03:47:38;;;;;;;9.47;8.10;;;4.40;99.90;;;;;;5139606;27;20779;-56
2022/11/13 03:50:06;;;;;;;9.43;8.43;;;4.40;99.90;;;;;;5140420;27;20455;-59
2022/11/13 03:52:35;;;;;;;13.47;8.30;;;4.40;99.90;;;;;;5139670;27;20502;-60
2022/11/13 03:55:08;;;;;;;7.73;6.90;;;4.40;99.90;;;;;;5138433;27;20764;-59
2022/11/13 03:57:36;;;;;;;6.67;5.20;;;4.40;99.90;;;;;;5140285;27;20469;-57
2022/11/13 04:00:05;;;;;;;11.20;6.63;;;4.40;99.90;;;;;;5139199;27;20458;-59
2022/11/13 04:02:32;;;;;;;6.83;6.00;;;4.50;92.90;;;;;;5139248;27;20585;-59
2022/11/13 04:05:02;;;;;;;8.50;5.97;;;4.50;40.30;;;;;;5139299;27;20433;-56
2022/11/13 04:07:29;;;;;;;6.30;5.47;;;4.50;26.00;;;;;;5139733;27;20878;-58
2022/11/13 04:09:58;;;;;;;7.07;5.30;;;4.50;1.00;;;;;;5139672;27;20849;-58
2022/11/13 04:12:25;;;;;;;8.77;5.37;;;4.50;1.00;;;;;;5139197;27;20549;-59
2022/11/13 04:14:54;;;;;;;7.93;6.63;;;4.50;1.00;;;;;;5139148;27;20441;-57
2022/11/13 04:17:24;;;;;;;7.40;6.13;;;4.40;1.00;;;;;;5138956;27;20438;-59
2022/11/13 04:19:51;;;;;;;7.43;6.10;;;4.40;1.00;;;;;;5139335;27;20466;-59
2022/11/13 04:22:18;;;;;;;8.50;6.80;;;4.40;1.00;;;;;;5138841;27;20539;-59
2022/11/13 04:24:45;;;;;;;7.77;6.00;;;4.40;6.10;;;;;;5138989;27;20918;-58
2022/11/13 04:27:14;;;;;;;8.77;7.00;;;4.30;39.30;;;;;;5139095;27;20434;-59
2022/11/13 04:29:44;;;;;;;7.57;6.77;;;4.30;46.50;;;;;;5139482;27;20465;-59
2022/11/13 04:32:14;;;;;;;7.60;6.80;;;4.30;39.00;;;;;;5138994;27;20903;-57
2022/11/13 04:34:41;;;;;;;8.00;7.20;;;4.20;22.50;;;;;;5139110;27;20443;-58
2022/11/13 04:37:09;;;;;;;8.80;7.90;;;4.20;32.80;;;;;;5139062;27;20429;-60
2022/11/13 04:39:38;;;;;;;11.17;7.37;;;4.30;51.70;;;;;;5138964;27;20846;-59
2022/11/13 04:44:51;;;;;;;8.47;5.80;;;4.30;87.90;;;;;;5138491;27;20434;-59
2022/11/13 04:47:18;;;;;;;7.00;5.20;;;4.30;92.80;;;;;;5139023;27;20480;-57
2022/11/13 04:49:48;;;;;;;5.70;4.67;;;4.30;99.30;;;;;;5139003;27;20462;-59
2022/11/13 04:52:15;;;;;;;9.33;6.23;;;4.30;90.50;;;;;;5138952;27;20462;-59
2022/11/13 04:54:42;;;;;;;7.50;6.00;;;4.40;75.10;;;;;;5138678;27;20538;-57
2022/11/13 04:57:10;;;;;;;5.70;5.10;;;4.30;26.30;;;;;;5137813;27;20484;-59
2022/11/13 04:59:37;;;;;;;5.87;5.20;;;4.30;15.90;;;;;;5138564;28;20551;-60
2022/11/13 05:02:05;;;;;;;8.83;6.83;;;4.20;1.00;;;;;;5137949;28;20961;-57
2022/11/13 05:04:33;;;;;;;6.40;5.67;;;4.20;1.00;;;;;;5138611;28;20482;-59
2022/11/13 05:07:00;;;;;;;7.47;5.33;;;4.10;1.00;;;;;;5138510;28;20519;-59
2022/11/13 05:09:27;;;;;;;6.67;4.90;;;4.10;1.00;;;;;;5138454;27;21063;-58
2022/11/13 05:11:54;;;;;;;5.77;4.70;;;4.00;1.00;;;;;;5138581;28;20477;-58
2022/11/13 05:14:22;;;;;;;6.00;5.40;;;3.90;6.20;;;;;;5138345;28;20515;-59
2022/11/13 05:16:54;;;;;;;6.63;5.27;;;3.90;13.20;;;;;;5138074;27;20740;-59
2022/11/13 05:19:23;;;;;;;6.57;5.10;;;3.80;8.70;;;;;;5138627;28;20458;-59
2022/11/13 05:21:50;;;;;;;6.40;4.93;;;3.80;27.20;;;;;;5138399;28;20925;-59
2022/11/13 05:24:17;;;;;;;7.37;5.40;;;3.80;16.00;;;;;;5138059;28;20437;-60
2022/11/13 05:26:45;;;;;;;9.17;6.47;;;3.70;1.00;;;;;;5138200;28;20866;-59
2022/11/13 05:29:12;;;;;;;8.63;6.73;;;3.70;1.00;;;;;;5138332;27;20465;-59
2022/11/13 05:31:40;;;;;;;7.90;6.63;;;3.70;1.00;;;;;;5138268;28;20754;-60
2022/11/13 05:34:09;;;;;;;6.80;5.30;;;3.70;1.00;;;;;;5137895;28;20433;-58
2022/11/13 05:36:38;;;;;;;5.93;5.20;;;3.80;1.00;;;;;;5137364;27;20856;-59
2022/11/13 05:39:06;;;;;;;6.13;4.70;;;3.80;1.00;;;;;;5138086;28;20459;-59
2022/11/13 05:41:34;;;;;;;7.83;4.53;;;3.80;1.00;;;;;;5138088;28;20585;-60
2022/11/13 05:44:01;;;;;;;8.03;5.40;;;3.80;1.00;;;;;;5137828;28;20549;-60
2022/11/13 05:46:29;;;;;;;6.83;5.00;;;3.80;1.00;;;;;;5138392;27;20433;-59
2022/11/13 05:48:59;;;;;;;7.70;4.37;;;3.80;1.00;;;;;;5138080;28;20462;-58
2022/11/13 05:51:29;;;;;;;5.00;4.20;;;3.90;1.00;;;;;;5138497;28;20459;-60
2022/11/13 05:53:58;;;;;;;4.83;4.07;;;3.80;1.00;;;;;;5138462;28;20494;-60
2022/11/13 05:56:27;;;;;;;4.93;4.10;;;3.80;1.00;;;;;;5138150;27;20875;-57
2022/11/13 05:58:58;;;;;;;5.10;3.53;;;3.70;1.00;;;;;;5140625;27;20554;-59
2022/11/13 06:01:28;;;;;;;4.30;3.90;;;3.60;1.00;;;;;;5142133;27;20494;-60
2022/11/13 06:03:57;;;;;;;5.47;4.30;;;3.60;1.00;;;;;;5141964;27;20454;-58
2022/11/13 06:06:25;;;;;;;5.13;4.00;;;3.60;1.00;;;;;;5141465;27;20433;-60
2022/11/13 06:08:54;;;;;;;5.53;4.10;;;3.60;1.00;;;;;;5141720;27;20527;-58
2022/11/13 06:11:29;;;;;;;5.50;3.70;;;3.60;1.00;;;;;;5141922;27;20454;-60
2022/11/13 06:13:57;;;;;;;7.43;4.10;;;3.60;1.00;;;;;;5142261;27;20917;-58
2022/11/13 06:16:29;;;;;;;5.50;3.93;;;3.60;1.00;;;;;;5141376;27;20728;-60
2022/11/13 06:18:57;;;;;;;8.13;4.03;;;3.60;1.00;;;;;;5142120;27;20458;-59
2022/11/13 06:21:30;;;;;;;4.83;3.70;;;3.60;1.00;;;;;;5141233;27;20457;-60
2022/11/13 06:24:01;;;;;;;5.00;3.80;;;3.50;1.00;;;;;;5139591;27;20497;-59
2022/11/13 06:26:32;;;;;;;4.67;3.60;;;3.60;1.00;;;;;;5140188;27;20487;-56
2022/11/13 06:28:59;;;;;;;6.00;4.20;;;3.60;1.00;;;;;;5140024;27;20558;-58
2022/11/13 06:31:28;;;;;;;4.73;3.70;;;3.60;1.00;;;;;;5140683;27;20458;-60
2022/11/13 06:34:00;;;;;;;4.90;4.07;;;3.60;1.00;;;;;;5137364;27;20891;-59
2022/11/13 06:36:29;;;;;;;6.23;3.77;;;3.60;1.00;;;;;;5138979;27;20462;-59
2022/11/13 06:38:58;;;;;;;8.50;4.03;;;3.60;1.00;;;;;;5139677;27;20767;-60
2022/11/13 06:41:28;;;;;;;10.10;5.57;;;3.50;1.00;;;;;;5139040;27;20493;-60
2022/11/13 06:43:58;;;;;;;68.50;30.13;;;3.50;1.00;;;;;;5139944;27;20815;-60
2022/11/13 06:46:27;;;;;;;39.70;19.50;;;3.60;1.00;;;;;;5139781;27;20550;-59
2022/11/13 06:48:55;;;;;;;34.20;15.70;;;3.60;1.00;;;;;;5139673;27;20458;-59
2022/11/13 06:51:25;;;;;;;25.70;13.23;;;3.50;1.00;;;;;;5139665;27;20898;-59
2022/11/13 06:53:56;;;;;;;22.17;13.30;;;3.50;1.00;;;;;;5140395;27;20445;-60
2022/11/13 06:56:25;;;;;;;18.40;11.40;;;3.60;1.00;;;;;;5140285;27;20458;-58
2022/11/13 06:58:55;;;;;;;15.23;9.40;;;3.60;1.00;;;;;;5140788;27;20891;-59
2022/11/13 07:01:25;;;;;;;14.73;9.20;;;3.60;1.00;;;;;;5140731;27;20527;-60
2022/11/13 07:03:54;;;;;;;11.67;6.20;;;3.60;1.00;;;;;;5140726;27;20507;-60
2022/11/13 07:06:23;;;;;;;11.07;6.63;;;3.70;1.00;;;;;;5140651;27;20440;-60
2022/11/13 07:08:53;;;;;;;10.10;6.23;;;3.70;1.00;;;;;;5140899;27;20731;-60
2022/11/13 07:11:22;;;;;;;8.50;5.20;;;3.70;1.00;;;;;;5139666;27;20433;-60
2022/11/13 07:13:52;;;;;;;15.83;10.47;;;3.70;1.00;;;;;;5140951;27;20462;-58
2022/11/13 07:16:20;;;;;;;7.77;6.37;;;3.70;1.00;;;;;;5140915;27;20520;-59
2022/11/13 07:18:52;;;;;;;7.50;4.77;;;3.80;1.00;;;;;;5140985;27;20516;-59
2022/11/13 07:21:24;;;;;;;6.37;5.53;;;3.80;1.00;;;;;;5140764;27;20919;-58
2022/11/13 07:23:57;;;;;;;5.07;4.50;;;3.90;1.00;;;;;;5141136;27;20502;-60
2022/11/13 07:26:24;;;;;;;5.60;4.77;;;3.90;1.00;;;;;;5139953;27;20462;-60
2022/11/13 07:28:51;;;;;;;6.87;4.27;;;3.90;1.00;;;;;;5139962;27;20569;-60
2022/11/13 07:31:19;;;;;;;4.43;3.80;;;3.90;1.00;;;;;;5140429;27;20429;-59
2022/11/13 07:33:48;;;;;;;6.50;4.23;;;4.00;1.00;;;;;;5140307;27;20936;-58
2022/11/13 07:36:17;;;;;;;5.40;4.00;;;4.00;1.00;;;;;;5139368;27;20458;-60
2022/11/13 07:38:45;;;;;;;6.13;3.80;;;4.20;1.00;;;;;;5139869;27;20433;-60
2022/11/13 07:41:14;;;;;;;4.87;3.93;;;4.30;1.00;;;;;;5139672;27;22429;-59
2022/11/13 07:43:41;;;;;;;5.40;3.83;;;4.40;1.00;;;;;;5139313;27;20547;-60
2022/11/13 07:46:10;;;;;;;5.80;4.87;;;4.60;1.00;;;;;;5139288;27;20519;-60
2022/11/13 07:48:37;;;;;;;5.63;4.40;;;4.60;1.00;;;;;;5139418;27;20459;-60
2022/11/13 07:51:05;;;;;;;5.00;4.50;;;4.70;1.00;;;;;;5139445;27;20463;-59
2022/11/13 07:53:34;;;;;;;7.00;4.53;;;4.70;1.00;;;;;;5139166;27;20512;-60
2022/11/13 07:56:04;;;;;;;5.57;4.07;;;4.70;1.00;;;;;;5139062;27;20441;-60
2022/11/13 07:58:33;;;;;;;6.00;3.90;;;4.80;1.00;;;;;;5140038;27;20516;-58
2022/11/13 08:01:04;;;;;;;4.90;4.17;;;4.90;1.00;;;;;;5139427;27;20433;-60
2022/11/13 08:03:32;;;;;;;6.77;5.00;;;5.10;1.00;;;;;;5137759;27;20429;-61
2022/11/13 08:06:03;;;;;;;5.67;4.37;;;5.40;1.00;;;;;;5138109;27;20449;-60
2022/11/13 08:08:31;;;;;;;5.87;5.27;;;5.80;1.00;;;;;;5138142;27;20520;-60
2022/11/13 08:11:10;;;;;;;5.90;5.10;;;6.20;1.00;;;;;;5138257;27;20447;-60
2022/11/13 08:13:38;;;;;;;5.60;5.10;;;6.50;1.00;;;;;;5137876;27;20530;-60
2022/11/13 08:16:08;;;;;;;8.70;5.37;;;6.70;1.00;;;;;;5138962;27;20451;-59
2022/11/13 08:18:35;;;;;;;11.13;6.30;;;6.90;1.00;;;;;;5138321;27;21858;-60
2022/11/13 08:21:06;;;;;;;7.57;6.03;;;7.30;1.00;;;;;;5134948;27;20469;-61
2022/11/13 08:23:33;;;;;;;8.27;5.97;;;7.50;1.00;;;;;;5137712;27;20790;-59
2022/11/13 08:26:06;;;;;;;8.27;5.73;;;7.80;1.00;;;;;;5137901;27;20422;-61
2022/11/13 08:28:33;;;;;;;5.47;4.90;;;8.10;1.00;;;;;;5135115;27;20476;-61
2022/11/13 08:31:06;;;;;;;6.43;5.70;;;8.40;1.00;;;;;;5135053;27;20446;-59
2022/11/13 08:36:12;;;;;;;5.83;5.23;;;8.70;1.00;;;;;;3765834;22;20505;-61
2022/11/13 08:38:39;;;;;;;9.10;5.70;;;9.00;1.00;;;;;;5060301;28;20722;-59
2022/11/13 08:41:08;;;;;;;5.70;5.07;;;9.30;1.00;;;;;;5057880;28;20470;-61
2022/11/13 08:43:36;;;;;;;7.33;5.80;;;9.60;1.00;;;;;;5065320;28;20496;-60
2022/11/13 08:46:03;;;;;;;6.27;5.63;;;10.00;99.90;;;;;;5076787;28;20461;-61
2022/11/13 08:48:30;;;;;;;7.20;5.30;;;10.20;99.90;;;;;;5076554;28;20432;-60
2022/11/13 08:50:58;;;;;;;6.30;4.90;;;10.50;99.90;;;;;;5076163;28;20881;-61
2022/11/13 08:53:28;;;;;;;5.37;4.50;;;10.70;99.90;;;;;;5076813;28;20438;-59
2022/11/13 08:55:55;;;;;;;7.57;5.20;;;10.80;99.90;;;;;;5076930;28;20465;-61
2022/11/13 08:58:26;;;;;;;15.70;12.43;;;10.90;99.90;;;;;;5076937;28;20457;-60
2022/11/13 09:00:54;;;;;;;13.20;11.10;;;11.00;99.90;;;;;;5075976;28;20504;-61
2022/11/13 09:03:21;;;;;;;5.33;4.83;;;11.20;99.90;;;;;;5076585;28;20489;-61
2022/11/13 09:05:50;;;;;;;7.33;5.80;;;11.70;99.90;;;;;;5076803;28;20916;-61
2022/11/13 09:08:20;;;;;;;6.23;5.63;;;12.00;99.90;;;;;;5076525;28;20511;-61
2022/11/13 09:10:48;;;;;;;7.30;5.10;;;12.20;99.90;;;;;;5076184;28;20821;-61
2022/11/13 09:13:15;;;;;;;6.03;5.30;;;12.50;99.90;;;;;;5076533;28;20462;-61
2022/11/13 09:15:43;;;;;;;14.00;9.67;;;12.70;99.90;;;;;;5076439;28;20457;-61
2022/11/13 09:18:11;;;;;;;7.40;5.27;;;13.00;99.90;;;;;;5075842;28;20468;-61
2022/11/13 09:20:41;;;;;;;5.40;4.90;;;13.20;99.90;;;;;;5072401;28;20750;-61
2022/11/13 09:23:09;;;;;;;5.90;4.60;;;13.50;99.90;;;;;;5058176;28;20516;-62
2022/11/13 09:25:39;;;;;;;5.37;4.80;;;13.80;99.90;;;;;;5064469;28;20459;-62
2022/11/13 09:28:08;;;;;;;5.13;4.60;;;14.10;99.90;;;;;;5059651;28;20466;-62
2022/11/13 09:30:38;;;;;;;6.17;5.57;;;14.30;99.90;;;;;;5062989;28;20457;-62
2022/11/13 09:33:07;;;;;;;6.47;5.80;;;14.50;99.90;;;;;;5045510;28;20768;-62
2022/11/13 09:35:40;;;;;;;5.80;5.23;;;14.70;99.90;;;;;;5002922;28;1245947;-62
2022/11/13 09:38:14;;;;;;;8.00;5.90;;;14.70;99.90;;;;;;5052481;28;20295;-62
2022/11/13 09:40:46;;;;;;;18.47;11.43;;;15.00;99.90;;;;;;5040116;28;20558;-62
2022/11/13 09:43:31;;;;;;;6.77;4.97;;;15.30;99.90;;;;;;5046360;28;20872;-62
2022/11/13 09:46:02;;;;;;;21.20;12.27;;;15.60;99.90;;;;;;5064701;28;20461;-62
2022/11/13 09:48:36;;;;;;;8.60;6.40;;;15.80;99.90;;;;;;5073702;28;20735;-62
2022/11/13 09:51:11;;;;;;;5.63;4.83;;;15.90;99.90;;;;;;5062117;28;20465;-63
2022/11/13 09:53:41;;;;;;;5.43;4.90;;;15.90;99.90;;;;;;5065036;28;20458;-62
2022/11/13 09:56:22;;;;;;;8.50;6.00;;;16.00;99.90;;;;;;5063623;28;20454;-63
2022/11/13 09:58:55;;;;;;;8.63;7.63;;;16.40;99.90;;;;;;5066385;28;20792;-62
2022/11/13 10:01:31;;;;;;;6.47;5.57;;;16.80;99.90;;;;;;5058931;28;20458;-63
2022/11/13 10:04:05;;;;;;;11.70;8.53;;;17.20;99.90;;;;;;5074264;28;20583;-63
2022/11/13 10:06:46;;;;;;;6.90;6.13;;;17.70;99.90;;;;;;5055769;28;20496;-62
2022/11/13 10:09:22;;;;;;;6.83;6.13;;;17.90;99.90;;;;;;5039714;28;20898;-62
2022/11/13 10:11:55;;;;;;;5.17;4.67;;;17.80;99.90;;;;;;5048378;28;20462;-63
2022/11/13 10:14:29;;;;;;;5.63;5.13;;;18.20;99.90;;;;;;5074129;28;20919;-63
2022/11/13 10:17:00;;;;;;;5.33;4.83;;;18.30;99.90;;;;;;5061697;28;20768;-63
2022/11/13 10:19:38;;;;;;;5.23;4.40;;;18.60;99.90;;;;;;5052346;28;20485;-63
2022/11/13 10:22:20;;;;;;;7.40;5.23;;;18.90;99.90;;;;;;5046258;28;20512;-63
2022/11/13 10:24:51;;;;;;;5.03;4.53;;;19.00;99.90;;;;;;5056795;28;20497;-63
2022/11/13 10:27:19;;;;;;;5.90;5.30;;;19.10;99.90;;;;;;5053810;28;20443;-63
2022/11/13 10:29:46;;;;;;;5.50;5.00;;;19.40;99.90;;;;;;5057790;28;20764;-62
2022/11/13 10:35:52;;;;;;;2.57;2.37;;;19.90;99.90;;;;;;5053923;28;20453;-63
2022/11/13 10:38:27;;;;;;;3.13;2.83;;;20.20;99.90;;;;;;5039673;28;20581;-63
2022/11/13 10:41:08;;;;;;;3.63;3.20;;;20.60;99.90;;;;;;5042006;28;20499;-63
2022/11/13 10:43:36;;;;;;;3.83;3.27;;;20.90;99.90;;;;;;5047358;28;20927;-62
2022/11/13 10:46:05;;;;;;;3.50;2.90;;;21.10;99.90;;;;;;5039720;28;20463;-62
2022/11/13 10:48:35;;;;;;;3.60;3.00;;;21.20;99.90;;;;;;5039090;28;20544;-63
2022/11/13 10:51:20;;;;;;;3.07;2.77;;;21.30;99.90;;;;;;5039318;28;20467;-62
2022/11/13 10:53:48;;;;;;;3.33;2.83;;;21.40;99.90;;;;;;5038073;28;20909;-62
2022/11/13 10:56:29;;;;;;;4.87;3.03;;;21.40;99.90;;;;;;5038113;28;20466;-62
2022/11/13 10:59:09;;;;;;;2.93;2.67;;;21.60;99.90;;;;;;5038784;28;20749;-62
2022/11/13 11:01:42;;;;;;;2.40;2.20;;;21.70;99.90;;;;;;5042104;28;20508;-63
2022/11/13 11:04:14;;;;;;;2.60;2.40;;;22.00;99.90;;;;;;5057795;28;20494;-62
2022/11/13 11:06:46;;;;;;;3.90;2.80;;;22.30;99.90;;;;;;5057994;28;20464;-62
2022/11/13 11:09:23;;;;;;;2.90;2.70;;;22.40;99.90;;;;;;5042985;28;20463;-62
2022/11/13 11:12:22;;;;;;;2.77;2.57;;;22.40;99.90;;;;;;5039157;28;20466;-62
2022/11/13 11:15:08;;;;;;;3.27;2.67;;;22.30;99.90;;;;;;5039005;28;20463;-63
2022/11/13 11:17:42;;;;;;;2.80;2.60;;;22.50;99.90;;;;;;5039086;28;20929;-62
2022/11/13 11:20:22;;;;;;;2.80;2.60;;;22.50;99.90;;;;;;5042333;28;20476;-63
2022/11/13 11:22:57;;;;;;;2.63;2.30;;;22.70;99.90;;;;;;5038753;28;20552;-63
2022/11/13 11:25:35;;;;;;;2.70;2.10;;;22.70;99.90;;;;;;5037855;28;20474;-62
2022/11/13 11:28:12;;;;;;;2.70;2.50;;;23.00;99.90;;;;;;5037223;28;20466;-62
2022/11/13 11:30:45;;;;;;;2.63;2.13;;;23.00;99.90;;;;;;5037508;28;20529;-62
2022/11/13 11:33:22;;;;;;;2.20;2.00;;;23.20;99.90;;;;;;5042944;28;20470;-62
2022/11/13 11:35:53;;;;;;;2.63;2.43;;;23.30;99.90;;;;;;5037668;28;20492;-63
2022/11/13 11:38:26;;;;;;;1.70;1.57;;;23.30;99.90;;;;;;5038585;28;20907;-62
2022/11/13 11:40:57;;;;;;;5.90;5.40;;;23.30;99.90;;;;;;5055933;28;20466;-62
2022/11/13 11:43:35;;;;;;;2.80;2.10;;;23.40;99.90;;;;;;5058566;28;20494;-62
2022/11/13 11:46:04;;;;;;;4.60;4.20;;;23.60;99.90;;;;;;5057830;28;20466;-62
2022/11/13 11:48:33;;;;;;;1.97;1.87;;;23.70;99.90;;;;;;5058026;28;20472;-61
2022/11/13 11:51:09;;;;;;;2.07;1.97;;;23.60;99.90;;;;;;5042147;28;20517;-62
2022/11/13 11:53:46;;;;;;;2.30;2.10;;;23.60;99.90;;;;;;5039442;28;20814;-62
2022/11/13 11:56:23;;;;;;;1.93;1.77;;;23.70;99.90;;;;;;5056455;28;20472;-62
2022/11/13 11:59:09;;;;;;;1.57;1.47;;;23.70;99.90;;;;;;5057650;28;20552;-63
2022/11/13 12:02:03;;;;;;;2.00;1.90;;;23.70;99.90;;;;;;5052008;28;20468;-61
2022/11/13 12:04:50;;;;;;;2.17;1.97;;;24.10;99.90;;;;;;5050637;28;20505;-61
2022/11/13 12:07:33;;;;;;;1.97;1.87;;;24.10;99.90;;;;;;5043943;28;20462;-62
2022/11/13 12:10:15;;;;;;;1.90;1.80;;;24.40;99.90;;;;;;5057252;28;20466;-62
2022/11/13 12:12:54;;;;;;;2.30;2.10;;;24.40;99.90;;;;;;5065362;28;20519;-62
2022/11/13 12:15:28;;;;;;;8.37;7.13;;;24.50;99.90;;;;;;5066668;28;20494;-62
2022/11/13 12:18:05;;;;;;;7.30;6.40;;;24.50;99.90;;;;;;5064207;28;20470;-62
2022/11/13 12:20:41;;;;;;;2.00;1.90;;;24.70;99.90;;;;;;5056869;28;20462;-62
2022/11/13 12:23:29;;;;;;;2.20;2.00;;;24.80;99.90;;;;;;5059718;28;20493;-62
2022/11/13 12:26:07;;;;;;;2.00;1.90;;;24.70;99.90;;;;;;5058683;28;20549;-62
2022/11/13 12:28:42;;;;;;;2.27;2.07;;;24.70;99.90;;;;;;5056311;28;20469;-62
2022/11/13 12:31:22;;;;;;;2.50;2.30;;;24.80;99.90;;;;;;5056277;28;20461;-62
2022/11/13 12:34:01;;;;;;;3.30;3.00;;;24.50;99.90;;;;;;5056402;28;20535;-62
2022/11/13 12:36:29;;;;;;;2.20;2.10;;;24.30;99.90;;;;;;5056004;28;20581;-61
2022/11/13 12:39:05;;;;;;;1.67;1.57;;;24.10;99.90;;;;;;5057064;28;20473;-61
2022/11/13 12:41:40;;;;;;;2.70;2.50;;;24.00;99.90;;;;;;5042591;28;20462;-62
2022/11/13 12:44:20;;;;;;;4.33;3.93;;;24.00;99.90;;;;;;5036398;28;20498;-62
2022/11/13 12:46:48;;;;;;;2.20;2.00;;;24.10;99.90;;;;;;5037929;28;20884;-61
2022/11/13 12:49:26;;;;;;;1.77;1.67;;;24.00;99.90;;;;;;5037576;28;20467;-61
2022/11/13 12:51:55;;;;;;;3.50;3.20;;;23.80;99.90;;;;;;5046859;28;20466;-62
2022/11/13 12:54:29;;;;;;;6.70;6.03;;;23.70;99.90;;;;;;5054198;28;20462;-62
2022/11/13 12:57:17;;;;;;;7.67;6.90;;;23.50;99.90;;;;;;5052250;28;20516;-61
2022/11/13 12:59:47;;;;;;;3.70;3.40;;;23.20;99.90;;;;;;5053083;28;20470;-61
2022/11/13 13:02:40;;;;;;;3.13;2.83;;;22.90;99.90;;;;;;5054432;28;20457;-61
2022/11/13 13:05:32;;;;;;;4.10;3.70;;;22.60;99.90;;;;;;5056639;28;20466;-62
2022/11/13 13:08:30;;;;;;;2.60;2.40;;;22.30;99.90;;;;;;5058941;28;20458;-61
2022/11/13 13:11:17;;;;;;;4.77;4.37;;;21.90;99.90;;;;;;5053120;28;20549;-61
2022/11/13 13:14:00;;;;;;;2.40;2.20;;;21.60;99.90;;;;;;5070197;28;20541;-60
2022/11/13 13:16:30;;;;;;;2.10;1.90;;;21.30;99.90;;;;;;5069442;28;20494;-61
2022/11/13 13:19:07;;;;;;;1.90;1.80;;;21.10;99.90;;;;;;5070710;28;20481;-61
2022/11/13 13:21:42;;;;;;;1.70;1.60;;;21.00;99.90;;;;;;5082051;28;20465;-60